Time;durP1;ratioP1;P1;durP2;ratioP2;P2;SDS_P1;SDS_P2;PMS_P1;PMS_P2;Temp;Humidity;BMP_temperature;BMP_pressure;BME280_temperature;BME280_humidity;BME280_pressure;Samples;Min_cycle;Max_cycle;Signal;HPM_P1;HPM_P2
2022/07/06 00:00:20;;;;;;;0.77;0.20;;;14.90;64.40;;;;;;4983547;28;20046;-81
2022/07/06 00:02:47;;;;;;;0.55;0.17;;;14.90;64.50;;;;;;4979539;28;20042;-82
2022/07/06 00:05:17;;;;;;;0.45;0.10;;;14.90;64.70;;;;;;4974925;28;20182;-81
2022/07/06 00:07:46;;;;;;;0.63;0.20;;;14.80;64.80;;;;;;4985360;28;20073;-81
2022/07/06 00:10:13;;;;;;;0.82;0.20;;;14.80;65.10;;;;;;4992797;28;20042;-82
2022/07/06 00:12:40;;;;;;;0.60;0.20;;;14.80;65.10;;;;;;4998985;28;20133;-81
2022/07/06 00:15:08;;;;;;;0.60;0.10;;;14.80;65.20;;;;;;5008905;28;20046;-81
2022/07/06 00:17:35;;;;;;;0.70;0.20;;;14.70;65.20;;;;;;4991906;28;20513;-81
2022/07/06 00:20:03;;;;;;;1.60;0.10;;;14.70;65.30;;;;;;4977649;28;20417;-81
2022/07/06 00:22:30;;;;;;;0.30;0.10;;;14.70;65.30;;;;;;4993487;28;20050;-81
2022/07/06 00:24:57;;;;;;;0.70;0.20;;;14.70;65.40;;;;;;4999259;28;20451;-81
2022/07/06 00:27:27;;;;;;;1.23;0.10;;;14.70;65.50;;;;;;5002110;28;20477;-81
2022/07/06 00:29:54;;;;;;;0.85;0.20;;;14.70;65.60;;;;;;4976134;28;20158;-81
2022/07/06 00:32:21;;;;;;;0.30;0.08;;;14.70;65.70;;;;;;4993147;28;20482;-81
2022/07/06 00:34:51;;;;;;;0.98;0.10;;;14.70;66.40;;;;;;4970961;28;20066;-81
2022/07/06 00:37:22;;;;;;;1.30;0.22;;;14.70;65.90;;;;;;4994789;28;20092;-81
2022/07/06 00:39:49;;;;;;;1.70;0.20;;;14.70;66.10;;;;;;4998016;28;20046;-81
2022/07/06 00:42:16;;;;;;;0.85;0.20;;;14.60;66.20;;;;;;4977440;28;20070;-81
2022/07/06 00:44:43;;;;;;;1.25;0.10;;;14.60;66.30;;;;;;4960876;28;20057;-81
2022/07/06 00:47:10;;;;;;;0.77;0.10;;;14.60;66.80;;;;;;4974696;28;20130;-81
2022/07/06 00:52:23;;;;;;;0.10;0.10;;;14.50;66.80;;;;;;4991920;28;20134;-81
2022/07/06 00:54:51;;;;;;;1.98;0.20;;;14.50;67.00;;;;;;4991594;28;20089;-80
2022/07/06 00:57:18;;;;;;;0.90;0.20;;;14.50;67.00;;;;;;4988571;28;20102;-81
2022/07/06 00:59:45;;;;;;;0.20;0.10;;;14.50;67.00;;;;;;5007498;28;20564;-81
2022/07/06 01:02:12;;;;;;;1.05;0.20;;;14.50;67.00;;;;;;4972671;28;20171;-81
2022/07/06 01:04:40;;;;;;;1.00;0.20;;;14.40;67.10;;;;;;4985819;28;20078;-81
2022/07/06 01:07:07;;;;;;;2.30;0.30;;;14.40;67.30;;;;;;4975342;28;20421;-81
2022/07/06 01:09:34;;;;;;;0.55;0.10;;;14.40;67.40;;;;;;4988271;28;20035;-81
2022/07/06 01:12:01;;;;;;;0.80;0.20;;;14.40;67.40;;;;;;4991857;28;20042;-81
2022/07/06 01:14:29;;;;;;;0.52;0.10;;;14.40;67.50;;;;;;4982436;28;20059;-81
2022/07/06 01:16:56;;;;;;;0.60;0.10;;;14.40;67.50;;;;;;4993010;28;20054;-81
2022/07/06 01:19:23;;;;;;;1.95;0.30;;;14.40;67.60;;;;;;5007772;28;20522;-82
2022/07/06 01:21:50;;;;;;;1.23;0.10;;;14.40;67.60;;;;;;4990584;28;20043;-81
2022/07/06 01:24:21;;;;;;;0.90;0.10;;;14.30;67.70;;;;;;5003444;28;20061;-81
2022/07/06 01:26:50;;;;;;;1.00;0.10;;;14.30;67.70;;;;;;4989581;28;20050;-81
2022/07/06 01:29:18;;;;;;;0.65;0.10;;;14.40;67.90;;;;;;4994674;28;20042;-80
2022/07/06 01:31:48;;;;;;;0.10;0.10;;;14.30;67.90;;;;;;4995133;28;20046;-81
2022/07/06 01:34:19;;;;;;;1.38;0.10;;;14.30;68.00;;;;;;4975124;28;20170;-82
2022/07/06 01:36:46;;;;;;;0.25;0.10;;;14.30;68.10;;;;;;4993787;28;20070;-81
2022/07/06 01:39:13;;;;;;;0.32;0.10;;;14.30;68.20;;;;;;4994814;28;20046;-81
2022/07/06 01:41:40;;;;;;;0.35;0.10;;;14.30;68.40;;;;;;4978899;28;20046;-81
2022/07/06 01:44:08;;;;;;;1.05;0.17;;;14.30;68.50;;;;;;4995395;28;20042;-81
2022/07/06 01:46:36;;;;;;;0.57;0.03;;;14.30;68.60;;;;;;4992148;28;20513;-81
2022/07/06 01:49:08;;;;;;;1.60;0.10;;;14.20;68.70;;;;;;4989466;28;20054;-81
2022/07/06 01:51:35;;;;;;;0.25;0.10;;;14.20;68.80;;;;;;4992871;28;20141;-81
2022/07/06 01:54:02;;;;;;;1.90;0.20;;;14.20;69.50;;;;;;4957120;28;20050;-81
2022/07/06 01:56:29;;;;;;;1.55;0.20;;;14.10;69.00;;;;;;4999560;28;20043;-81
2022/07/06 01:59:00;;;;;;;1.75;0.30;;;14.10;69.10;;;;;;4991200;28;20171;-81
2022/07/06 02:01:27;;;;;;;3.13;0.20;;;14.10;69.20;;;;;;4984918;28;20053;-81
2022/07/06 02:03:54;;;;;;;0.82;0.22;;;14.10;69.40;;;;;;4997504;28;20047;-81
2022/07/06 02:06:22;;;;;;;0.35;0.10;;;14.00;69.40;;;;;;4993867;28;20038;-81
2022/07/06 02:08:51;;;;;;;0.50;0.10;;;14.00;69.50;;;;;;4990124;28;20046;-81
2022/07/06 02:11:19;;;;;;;2.10;0.20;;;14.00;69.70;;;;;;4962405;28;20100;-80
2022/07/06 02:13:46;;;;;;;0.52;0.20;;;14.00;69.80;;;;;;4994311;28;20042;-81
2022/07/06 02:16:13;;;;;;;0.50;0.10;;;13.90;69.90;;;;;;4964384;28;20137;-81
2022/07/06 02:18:42;;;;;;;0.68;0.20;;;13.90;70.00;;;;;;4984888;28;20050;-80
2022/07/06 02:21:09;;;;;;;0.60;0.20;;;13.90;70.20;;;;;;4981544;28;20101;-81
2022/07/06 02:23:36;;;;;;;0.68;0.10;;;13.90;70.20;;;;;;5017087;28;20928;-80
2022/07/06 02:26:04;;;;;;;1.92;0.15;;;13.90;70.30;;;;;;4994772;28;20100;-80
2022/07/06 02:28:33;;;;;;;2.58;0.20;;;13.90;70.40;;;;;;5004167;28;20056;-80
2022/07/06 02:31:00;;;;;;;1.27;0.20;;;13.80;70.30;;;;;;4993907;28;20426;-80
2022/07/06 02:33:29;;;;;;;1.02;0.20;;;13.80;70.40;;;;;;4978319;28;20050;-80
2022/07/06 02:35:56;;;;;;;0.70;0.20;;;13.80;70.50;;;;;;4996212;28;20053;-80
2022/07/06 02:38:23;;;;;;;1.52;0.10;;;13.90;70.50;;;;;;5003570;28;20042;-80
2022/07/06 02:40:52;;;;;;;0.47;0.20;;;13.90;70.50;;;;;;4993937;28;20382;-80
2022/07/06 02:43:19;;;;;;;1.95;0.20;;;13.80;70.60;;;;;;4993905;28;20046;-80
2022/07/06 02:45:47;;;;;;;3.00;0.50;;;13.80;70.60;;;;;;4994539;28;20058;-81
2022/07/06 02:48:15;;;;;;;0.47;0.10;;;13.80;70.70;;;;;;5008905;28;20030;-81
2022/07/06 02:50:42;;;;;;;0.63;0.20;;;13.80;70.70;;;;;;4985760;28;20462;-81
2022/07/06 02:53:09;;;;;;;0.73;0.20;;;13.80;70.70;;;;;;4994839;28;20548;-81
2022/07/06 02:55:36;;;;;;;1.38;0.20;;;13.80;70.80;;;;;;4986752;28;20410;-81
2022/07/06 02:58:05;;;;;;;1.15;0.13;;;13.80;70.70;;;;;;4973528;28;20066;-80
2022/07/06 03:00:33;;;;;;;1.17;0.30;;;13.80;71.40;;;;;;4967731;28;20101;-80
2022/07/06 03:03:00;;;;;;;0.20;0.10;;;13.80;70.70;;;;;;4977267;28;20047;-80
2022/07/06 03:05:28;;;;;;;0.40;0.10;;;13.80;70.80;;;;;;4977728;28;20384;-80
2022/07/06 03:07:55;;;;;;;1.33;0.10;;;13.80;70.80;;;;;;4977873;28;20050;-80
2022/07/06 03:10:22;;;;;;;0.80;0.10;;;13.90;70.90;;;;;;5009470;28;20043;-80
2022/07/06 03:12:49;;;;;;;3.53;0.20;;;13.80;70.80;;;;;;4993413;28;20043;-81
2022/07/06 03:15:17;;;;;;;0.55;0.20;;;13.80;70.90;;;;;;4991422;28;20402;-82
2022/07/06 03:17:47;;;;;;;0.93;0.20;;;13.80;71.00;;;;;;4977731;28;20046;-81
2022/07/06 03:20:21;;;;;;;0.43;0.20;;;13.80;71.10;;;;;;5006376;28;20043;-82
2022/07/06 03:22:50;;;;;;;0.50;0.20;;;13.80;71.40;;;;;;4993368;28;20051;-81
2022/07/06 03:25:18;;;;;;;0.65;0.20;;;13.80;71.50;;;;;;4999886;28;20053;-81
2022/07/06 03:27:45;;;;;;;0.80;0.20;;;13.80;71.50;;;;;;4999202;28;20639;-82
2022/07/06 03:30:15;;;;;;;0.88;0.10;;;13.80;71.50;;;;;;4990531;28;20047;-81
2022/07/06 03:32:51;;;;;;;1.02;0.30;;;13.80;71.40;;;;;;4995481;28;20037;-81
2022/07/06 03:35:19;;;;;;;0.40;0.20;;;13.80;71.50;;;;;;4985282;28;20375;-82
2022/07/06 03:37:49;;;;;;;2.67;0.30;;;13.90;71.50;;;;;;4993319;28;20062;-82
2022/07/06 03:40:16;;;;;;;2.22;0.22;;;13.90;71.60;;;;;;5008875;28;20129;-81
2022/07/06 03:42:46;;;;;;;0.90;0.20;;;13.90;71.60;;;;;;4998441;28;20049;-81
2022/07/06 03:45:14;;;;;;;1.73;0.20;;;13.90;72.20;;;;;;4976486;28;20070;-82
2022/07/06 03:47:41;;;;;;;0.98;0.20;;;14.00;72.30;;;;;;4992236;28;20057;-82
2022/07/06 03:50:09;;;;;;;1.10;0.30;;;14.00;71.60;;;;;;4976213;28;20061;-82
2022/07/06 03:52:39;;;;;;;0.90;0.20;;;14.00;71.50;;;;;;4960765;28;20050;-82
2022/07/06 03:55:10;;;;;;;0.85;0.20;;;14.10;71.70;;;;;;4958706;28;20584;-82
2022/07/06 03:57:40;;;;;;;2.08;0.30;;;14.10;71.50;;;;;;4988436;28;20423;-82
2022/07/06 04:00:11;;;;;;;0.75;0.25;;;14.20;71.50;;;;;;4975030;28;20047;-82
2022/07/06 04:02:41;;;;;;;0.82;0.20;;;14.20;71.50;;;;;;4995911;28;20042;-82
2022/07/06 04:05:15;;;;;;;0.17;0.10;;;14.30;71.50;;;;;;4994311;28;20132;-82
2022/07/06 04:07:42;;;;;;;0.80;0.17;;;14.30;71.40;;;;;;4964445;28;20052;-82
2022/07/06 04:10:10;;;;;;;0.52;0.20;;;14.40;71.40;;;;;;4994142;28;20062;-82
2022/07/06 04:12:44;;;;;;;0.57;0.25;;;14.40;71.40;;;;;;4976070;28;20066;-82
2022/07/06 04:15:13;;;;;;;0.75;0.20;;;14.40;71.40;;;;;;4995975;28;20078;-82
2022/07/06 04:17:52;;;;;;;1.35;0.10;;;14.40;71.40;;;;;;4988622;28;20051;-82
2022/07/06 04:20:42;;;;;;;0.82;0.20;;;14.40;71.30;;;;;;4977300;28;20078;-82
2022/07/06 04:23:10;;;;;;;0.98;0.20;;;14.40;71.40;;;;;;4981435;28;20048;-82
2022/07/06 04:25:37;;;;;;;1.88;0.20;;;14.40;71.40;;;;;;4944885;28;20072;-81
2022/07/06 04:28:04;;;;;;;1.35;0.20;;;14.40;71.50;;;;;;4995885;28;20050;-82
2022/07/06 04:30:35;;;;;;;0.60;0.17;;;14.40;71.60;;;;;;4994269;28;20092;-81
2022/07/06 04:33:07;;;;;;;1.45;0.20;;;14.40;71.60;;;;;;4999143;28;20444;-82
2022/07/06 04:35:35;;;;;;;2.25;0.20;;;14.40;71.60;;;;;;5008071;28;20038;-82
2022/07/06 04:38:02;;;;;;;1.05;0.20;;;14.40;71.60;;;;;;4985103;28;20038;-82
2022/07/06 04:40:29;;;;;;;3.28;0.25;;;14.40;71.60;;;;;;4994224;28;20083;-82
2022/07/06 04:43:00;;;;;;;1.38;0.20;;;14.50;71.80;;;;;;4981105;28;20048;-81
2022/07/06 04:45:29;;;;;;;1.70;0.30;;;14.40;71.80;;;;;;4976324;28;20050;-81
2022/07/06 04:47:57;;;;;;;1.20;0.28;;;14.40;71.80;;;;;;5009377;28;20089;-82
2022/07/06 04:50:24;;;;;;;0.93;0.38;;;14.50;72.00;;;;;;5007645;28;20092;-81
2022/07/06 04:52:54;;;;;;;2.53;0.30;;;14.50;72.10;;;;;;4991389;28;20038;-81
2022/07/06 04:55:21;;;;;;;3.05;0.40;;;14.50;72.10;;;;;;4991029;28;20067;-82
2022/07/06 04:57:48;;;;;;;1.65;0.32;;;14.50;72.00;;;;;;4987544;28;20505;-82
2022/07/06 05:00:18;;;;;;;2.53;0.28;;;14.60;71.90;;;;;;4998790;28;20046;-82
2022/07/06 05:02:47;;;;;;;1.58;0.20;;;14.70;71.90;;;;;;4995400;28;20085;-82
2022/07/06 05:05:16;;;;;;;0.93;0.40;;;14.80;71.80;;;;;;4982134;28;20432;-82
2022/07/06 05:07:43;;;;;;;1.58;0.40;;;14.90;71.70;;;;;;4991134;28;20076;-82
2022/07/06 05:10:11;;;;;;;1.27;0.40;;;14.90;71.70;;;;;;4990567;28;20039;-82
2022/07/06 05:12:42;;;;;;;2.25;0.30;;;15.00;71.80;;;;;;4998181;28;20053;-82
2022/07/06 05:15:10;;;;;;;0.88;0.20;;;15.00;71.80;;;;;;4991129;28;20054;-81
2022/07/06 05:17:37;;;;;;;1.15;0.17;;;15.00;71.90;;;;;;4998329;28;20133;-82
2022/07/06 05:20:08;;;;;;;1.00;0.22;;;15.00;71.90;;;;;;4972756;28;20050;-81
2022/07/06 05:22:38;;;;;;;0.90;0.20;;;15.00;71.90;;;;;;4980764;28;20137;-81
2022/07/06 05:25:14;;;;;;;1.77;0.30;;;15.00;72.10;;;;;;4992891;28;20533;-82
2022/07/06 05:27:41;;;;;;;0.63;0.30;;;14.90;72.30;;;;;;4974068;28;20042;-81
2022/07/06 05:30:09;;;;;;;2.10;0.50;;;14.90;72.30;;;;;;4934598;28;20396;-81
2022/07/06 05:32:37;;;;;;;3.13;0.50;;;15.00;72.40;;;;;;4990922;28;20458;-82
2022/07/06 05:35:06;;;;;;;1.70;0.30;;;15.00;72.30;;;;;;4977462;28;20133;-82
2022/07/06 05:37:53;;;;;;;1.13;0.22;;;15.00;72.30;;;;;;4991212;28;20042;-82
2022/07/06 05:40:21;;;;;;;3.38;0.25;;;15.10;72.10;;;;;;4975207;28;20034;-82
2022/07/06 05:42:48;;;;;;;0.95;0.10;;;15.20;72.00;;;;;;4963222;28;20054;-82
2022/07/06 05:45:16;;;;;;;1.30;0.22;;;15.30;71.90;;;;;;4991475;28;20513;-82
2022/07/06 05:50:32;;;;;;;0.88;0.20;;;15.50;71.60;;;;;;4983190;28;20468;-82
2022/07/06 05:53:04;;;;;;;0.20;0.10;;;15.60;71.50;;;;;;4993409;28;20149;-82
2022/07/06 05:55:47;;;;;;;0.57;0.10;;;15.70;71.40;;;;;;4985706;28;20050;-82
2022/07/06 05:58:16;;;;;;;0.38;0.10;;;15.80;71.30;;;;;;4992933;28;20042;-82
2022/07/06 06:00:46;;;;;;;1.08;0.03;;;15.90;71.20;;;;;;5001367;28;20050;-82
2022/07/06 06:03:17;;;;;;;0.50;0.20;;;16.00;71.00;;;;;;4983022;28;20050;-82
2022/07/06 06:05:46;;;;;;;0.40;0.10;;;16.00;70.80;;;;;;4991595;28;20097;-82
2022/07/06 06:08:17;;;;;;;0.55;0.08;;;16.00;70.60;;;;;;4986599;28;20038;-82
2022/07/06 06:10:45;;;;;;;1.13;0.10;;;16.20;70.60;;;;;;4991088;28;20108;-82
2022/07/06 06:13:16;;;;;;;0.50;0.10;;;16.40;70.30;;;;;;4991728;28;20136;-81
2022/07/06 06:15:43;;;;;;;0.30;0.10;;;16.50;69.90;;;;;;5006882;28;20152;-82
2022/07/06 06:18:11;;;;;;;0.57;0.10;;;16.60;69.60;;;;;;4990438;28;20050;-84
2022/07/06 06:20:38;;;;;;;1.23;0.10;;;16.70;69.30;;;;;;4972923;28;20043;-86
2022/07/06 06:23:05;;;;;;;1.33;0.30;;;16.80;69.20;;;;;;4971096;28;20049;-85
2022/07/06 06:25:35;;;;;;;1.00;0.20;;;16.80;69.00;;;;;;5010282;28;20051;-85
2022/07/06 06:28:08;;;;;;;0.77;0.10;;;16.80;69.00;;;;;;4991000;28;20043;-84
2022/07/06 06:30:36;;;;;;;0.63;0.15;;;16.90;68.90;;;;;;4988829;28;20050;-83
2022/07/06 06:33:16;;;;;;;1.85;0.20;;;17.00;68.80;;;;;;4964715;28;20045;-84
2022/07/06 06:35:49;;;;;;;2.33;0.40;;;17.10;68.70;;;;;;4975420;28;20043;-83
2022/07/06 06:38:17;;;;;;;1.05;0.20;;;17.20;68.50;;;;;;4994275;28;20529;-84
2022/07/06 06:40:44;;;;;;;0.60;0.10;;;17.30;68.20;;;;;;4994181;28;20109;-84
2022/07/06 06:43:12;;;;;;;1.10;0.10;;;17.40;68.10;;;;;;4978336;28;20043;-84
2022/07/06 06:45:50;;;;;;;0.60;0.10;;;17.40;68.00;;;;;;5010529;28;20505;-84
2022/07/06 06:48:18;;;;;;;1.55;0.20;;;17.40;68.00;;;;;;4994026;28;20046;-84
2022/07/06 06:50:46;;;;;;;0.60;0.20;;;17.50;67.90;;;;;;4977999;28;20410;-84
2022/07/06 06:53:13;;;;;;;0.85;0.20;;;17.50;67.70;;;;;;5010179;28;20051;-84
2022/07/06 06:55:40;;;;;;;2.58;0.20;;;17.60;67.50;;;;;;4974470;28;20517;-84
2022/07/06 06:58:07;;;;;;;2.38;0.30;;;17.60;67.90;;;;;;4983153;28;20050;-84
2022/07/06 07:00:34;;;;;;;3.53;0.20;;;17.60;67.20;;;;;;4981900;28;20070;-84
2022/07/06 07:03:02;;;;;;;0.88;0.10;;;17.70;67.20;;;;;;4961736;28;20522;-85
2022/07/06 07:05:28;;;;;;;0.63;0.10;;;17.80;67.00;;;;;;4994026;28;20057;-84
2022/07/06 07:07:58;;;;;;;1.17;0.17;;;17.80;66.70;;;;;;4961895;28;20077;-84
2022/07/06 07:10:32;;;;;;;1.15;0.10;;;17.80;66.70;;;;;;4971877;28;20051;-83
2022/07/06 07:12:59;;;;;;;1.67;0.20;;;17.80;66.60;;;;;;4999104;28;20034;-84
2022/07/06 07:15:26;;;;;;;1.02;0.10;;;17.90;66.60;;;;;;4986487;28;20058;-84
2022/07/06 07:17:53;;;;;;;2.17;0.20;;;18.00;66.40;;;;;;4993122;28;20049;-84
2022/07/06 07:20:21;;;;;;;0.75;0.20;;;18.00;66.10;;;;;;4994118;28;20050;-84
2022/07/06 07:22:48;;;;;;;1.63;0.10;;;18.10;66.00;;;;;;4990248;28;20043;-84
2022/07/06 07:25:15;;;;;;;1.05;0.28;;;18.20;65.70;;;;;;4986773;28;20569;-84
2022/07/06 07:27:45;;;;;;;1.02;0.20;;;18.20;65.70;;;;;;4979271;28;20038;-84
2022/07/06 07:30:12;;;;;;;2.08;0.30;;;18.20;65.60;;;;;;4999834;28;20089;-83
2022/07/06 07:32:42;;;;;;;1.75;0.20;;;18.30;65.30;;;;;;4992821;28;20093;-83
2022/07/06 07:35:09;;;;;;;2.03;0.10;;;18.30;65.30;;;;;;4996716;28;20050;-84
2022/07/06 07:37:37;;;;;;;0.50;0.10;;;18.30;65.70;;;;;;4995110;28;20068;-84
2022/07/06 07:40:05;;;;;;;2.15;0.20;;;18.40;65.00;;;;;;4979552;28;20042;-84
2022/07/06 07:42:32;;;;;;;0.68;0.20;;;18.50;64.20;;;;;;4991544;28;20058;-84
2022/07/06 07:45:00;;;;;;;1.05;0.10;;;18.50;64.00;;;;;;4994025;28;20085;-84
2022/07/06 07:47:27;;;;;;;0.20;0.10;;;18.50;64.00;;;;;;4989651;28;20050;-84
2022/07/06 07:49:54;;;;;;;0.47;0.10;;;18.60;63.80;;;;;;4994486;28;20034;-84
2022/07/06 07:52:21;;;;;;;3.53;0.17;;;18.90;63.40;;;;;;4976891;28;20038;-84
2022/07/06 07:54:48;;;;;;;1.55;0.20;;;19.10;62.70;;;;;;4958711;28;20039;-84
2022/07/06 07:57:38;;;;;;;1.00;0.10;;;19.20;62.20;;;;;;5002164;28;20046;-83
2022/07/06 08:00:09;;;;;;;1.08;0.10;;;19.30;61.80;;;;;;4974155;28;20046;-84
2022/07/06 08:02:39;;;;;;;0.20;0.00;;;19.50;61.40;;;;;;4992876;28;20493;-84
2022/07/06 08:05:06;;;;;;;0.60;0.00;;;19.70;60.80;;;;;;4992619;28;20049;-83
2022/07/06 08:07:33;;;;;;;1.38;0.10;;;20.00;60.30;;;;;;4960671;28;20089;-84
2022/07/06 08:10:00;;;;;;;0.20;0.10;;;20.20;59.80;;;;;;4980552;28;20080;-84
2022/07/06 08:12:27;;;;;;;0.57;0.05;;;20.40;59.40;;;;;;4969817;28;20046;-84
2022/07/06 08:14:58;;;;;;;0.70;0.00;;;20.70;58.40;;;;;;4944497;28;20054;-86
2022/07/06 08:17:25;;;;;;;1.05;0.20;;;20.70;58.00;;;;;;4983451;28;20097;-85
2022/07/06 08:19:53;;;;;;;1.08;0.20;;;20.70;57.20;;;;;;5008669;28;20043;-85
2022/07/06 08:22:23;;;;;;;1.20;0.10;;;20.70;57.30;;;;;;4995155;28;20580;-85
2022/07/06 08:24:51;;;;;;;0.10;0.00;;;20.60;57.00;;;;;;4972957;28;20051;-85
2022/07/06 08:27:21;;;;;;;0.90;0.25;;;20.50;56.00;;;;;;5001436;28;20055;-86
2022/07/06 08:29:54;;;;;;;1.83;0.10;;;20.40;55.50;;;;;;4992296;28;20038;-83
2022/07/06 08:32:21;;;;;;;0.57;0.20;;;20.30;55.70;;;;;;4991992;28;20054;-83
2022/07/06 08:35:09;;;;;;;0.70;0.00;;;20.50;55.80;;;;;;4978747;28;20047;-84
2022/07/06 08:37:36;;;;;;;0.03;0.00;;;20.40;55.20;;;;;;4976316;28;20093;-85
2022/07/06 08:40:04;;;;;;;0.60;0.10;;;20.30;55.40;;;;;;4992376;28;20074;-82
2022/07/06 08:42:33;;;;;;;0.32;0.00;;;20.30;55.10;;;;;;4999445;28;20042;-82
2022/07/06 08:45:03;;;;;;;1.13;0.10;;;20.40;55.20;;;;;;4990671;28;20062;-84
2022/07/06 08:47:35;;;;;;;1.03;0.10;;;20.50;54.80;;;;;;5002972;28;20047;-83
2022/07/06 08:50:03;;;;;;;0.47;0.08;;;20.70;54.80;;;;;;4975496;28;20050;-83
2022/07/06 08:52:31;;;;;;;1.38;0.00;;;21.00;54.30;;;;;;4984976;28;20058;-83
2022/07/06 08:54:59;;;;;;;0.10;0.00;;;20.90;53.10;;;;;;4988601;28;20042;-83
2022/07/06 08:57:27;;;;;;;0.73;0.10;;;20.80;53.20;;;;;;4992427;28;20440;-87
2022/07/06 08:59:55;;;;;;;0.52;0.10;;;20.70;53.20;;;;;;4981120;28;20109;-86
2022/07/06 09:02:25;;;;;;;0.10;0.00;;;20.50;52.30;;;;;;5008568;28;20050;-87
2022/07/06 09:04:57;;;;;;;1.35;0.10;;;20.30;52.60;;;;;;4975993;28;20141;-86
2022/07/06 09:07:28;;;;;;;0.60;0.00;;;20.40;52.80;;;;;;4976391;28;20512;-87
2022/07/06 09:10:18;;;;;;;0.52;0.10;;;20.70;52.40;;;;;;4992185;28;20038;-87
2022/07/06 09:12:45;;;;;;;0.22;0.00;;;21.10;52.00;;;;;;4979593;28;20069;-87
2022/07/06 09:15:13;;;;;;;0.22;0.00;;;21.50;51.70;;;;;;4989466;28;20050;-86
2022/07/06 09:17:41;;;;;;;0.52;0.00;;;21.70;50.70;;;;;;4985605;28;20035;-85
2022/07/06 09:20:12;;;;;;;0.85;0.00;;;21.60;50.10;;;;;;4988102;28;20109;-86
2022/07/06 09:22:40;;;;;;;0.32;0.10;;;21.60;50.40;;;;;;4994897;28;20047;-86
2022/07/06 09:25:13;;;;;;;0.75;0.10;;;21.50;50.30;;;;;;4990977;28;20069;-86
2022/07/06 09:27:49;;;;;;;0.47;0.00;;;21.50;50.30;;;;;;5000748;28;20092;-81
2022/07/06 09:30:17;;;;;;;0.73;0.10;;;21.50;50.50;;;;;;5006465;28;20042;-82
2022/07/06 09:32:47;;;;;;;0.15;0.00;;;21.30;50.70;;;;;;4975053;28;20042;-80
2022/07/06 09:35:25;;;;;;;1.10;0.10;;;21.10;50.50;;;;;;4981340;28;20042;-81
2022/07/06 09:38:10;;;;;;;1.35;0.10;;;20.90;50.60;;;;;;4986093;28;20046;-81
2022/07/06 09:40:42;;;;;;;0.70;0.00;;;20.80;50.80;;;;;;4994737;28;20045;-80
2022/07/06 09:43:17;;;;;;;0.52;0.08;;;20.90;51.00;;;;;;4977133;28;20051;-81
2022/07/06 09:45:50;;;;;;;0.40;0.00;;;21.10;50.70;;;;;;4976616;28;20577;-80
2022/07/06 09:48:21;;;;;;;0.00;0.00;;;21.30;49.40;;;;;;4990965;28;20053;-80
2022/07/06 09:50:54;;;;;;;0.80;0.10;;;21.30;49.50;;;;;;4996416;28;20046;-80
2022/07/06 09:53:26;;;;;;;0.40;0.10;;;21.40;49.50;;;;;;4990965;28;20053;-80
2022/07/06 09:55:57;;;;;;;0.55;0.10;;;21.60;49.00;;;;;;4988197;28;20054;-80
2022/07/06 09:58:25;;;;;;;1.67;0.00;;;21.70;48.90;;;;;;4988731;28;20046;-80
2022/07/06 10:01:12;;;;;;;0.22;0.03;;;21.80;48.70;;;;;;5007664;28;20291;-80
2022/07/06 10:03:40;;;;;;;0.47;0.00;;;21.90;48.60;;;;;;4978887;28;20051;-80
2022/07/06 10:06:08;;;;;;;0.10;0.00;;;21.70;48.50;;;;;;4991340;28;20538;-80
2022/07/06 10:08:37;;;;;;;0.30;0.10;;;21.80;48.70;;;;;;4988380;28;20053;-81
2022/07/06 10:11:06;;;;;;;0.28;0.00;;;21.90;48.80;;;;;;4997199;28;20133;-80
2022/07/06 10:13:36;;;;;;;1.10;0.00;;;21.90;48.40;;;;;;4994707;28;20100;-81
2022/07/06 10:16:04;;;;;;;0.40;0.00;;;21.90;48.30;;;;;;4994229;28;20050;-80
2022/07/06 10:18:31;;;;;;;2.28;0.10;;;21.70;47.90;;;;;;4978382;28;20050;-80
2022/07/06 10:20:59;;;;;;;0.10;0.00;;;21.70;48.10;;;;;;4996355;28;20038;-80
2022/07/06 10:23:26;;;;;;;0.40;0.10;;;21.80;48.20;;;;;;5002840;28;20100;-80
2022/07/06 10:25:57;;;;;;;0.52;0.00;;;21.90;48.50;;;;;;4983802;28;20042;-81
2022/07/06 10:28:24;;;;;;;0.13;0.03;;;22.10;48.00;;;;;;4994183;28;20074;-81
2022/07/06 10:30:52;;;;;;;0.10;0.00;;;22.30;47.80;;;;;;5013882;28;20042;-81
2022/07/06 10:33:20;;;;;;;1.13;0.10;;;22.30;47.80;;;;;;5011507;28;20141;-84
2022/07/06 10:35:55;;;;;;;1.00;0.20;;;22.30;47.20;;;;;;4969717;28;20049;-82
2022/07/06 10:38:31;;;;;;;0.57;0.10;;;22.20;47.40;;;;;;4995743;28;20395;-82
2022/07/06 10:41:07;;;;;;;0.40;0.10;;;22.40;47.30;;;;;;5010046;28;20450;-84
2022/07/06 10:43:38;;;;;;;1.63;0.10;;;22.40;46.80;;;;;;4989361;28;20063;-82
2022/07/06 10:46:07;;;;;;;1.80;0.00;;;22.50;46.80;;;;;;4998033;28;20073;-83
2022/07/06 10:48:36;;;;;;;1.35;0.05;;;22.70;46.70;;;;;;4998059;28;20061;-79
2022/07/06 10:51:05;;;;;;;0.38;0.00;;;22.90;46.50;;;;;;4978335;28;20038;-79
2022/07/06 10:53:40;;;;;;;0.50;0.00;;;23.00;46.10;;;;;;4993647;28;20410;-80
2022/07/06 10:56:10;;;;;;;0.98;0.20;;;23.00;46.00;;;;;;5011237;28;20398;-80
2022/07/06 10:58:48;;;;;;;0.57;0.00;;;22.90;45.90;;;;;;4991024;28;20585;-81
2022/07/06 11:01:20;;;;;;;1.10;0.00;;;22.90;46.40;;;;;;4984403;28;20102;-81
2022/07/06 11:03:47;;;;;;;1.20;0.00;;;22.80;46.40;;;;;;4993268;28;20070;-80
2022/07/06 11:06:17;;;;;;;0.47;0.10;;;22.60;46.50;;;;;;5005063;28;20074;-81
2022/07/06 11:08:46;;;;;;;0.25;0.00;;;22.60;46.80;;;;;;5001764;28;20046;-79
2022/07/06 11:11:32;;;;;;;0.28;0.10;;;22.90;46.60;;;;;;4993638;28;20042;-80
2022/07/06 11:14:15;;;;;;;0.68;0.20;;;23.20;46.00;;;;;;4984743;28;20137;-81
2022/07/06 11:16:49;;;;;;;0.30;0.10;;;23.40;45.60;;;;;;4983309;28;20458;-84
2022/07/06 11:19:18;;;;;;;0.25;0.00;;;23.20;45.60;;;;;;4978397;28;20096;-83
2022/07/06 11:21:57;;;;;;;0.57;0.20;;;22.90;45.30;;;;;;4996247;28;20105;-84
2022/07/06 11:24:28;;;;;;;0.60;0.10;;;22.60;46.10;;;;;;4985255;28;20042;-84
2022/07/06 11:26:57;;;;;;;0.75;0.00;;;22.50;46.20;;;;;;5004705;28;20097;-82
2022/07/06 11:29:26;;;;;;;0.25;0.08;;;22.80;46.00;;;;;;4981856;28;20030;-80
2022/07/06 11:31:55;;;;;;;0.60;0.10;;;23.00;45.70;;;;;;4990366;28;20054;-83
2022/07/06 11:34:28;;;;;;;0.00;0.00;;;23.30;45.20;;;;;;4961455;28;20105;-82
2022/07/06 11:37:01;;;;;;;0.17;0.00;;;23.30;45.10;;;;;;5003215;28;20039;-82
2022/07/06 11:39:29;;;;;;;0.43;0.10;;;23.10;45.50;;;;;;4990639;28;20046;-83
2022/07/06 11:41:58;;;;;;;0.47;0.10;;;23.10;45.80;;;;;;4992952;28;20941;-84
2022/07/06 11:44:25;;;;;;;0.73;0.10;;;23.20;45.50;;;;;;4993628;28;20851;-81
2022/07/06 11:46:56;;;;;;;0.50;0.10;;;23.50;45.20;;;;;;4979647;28;20129;-83
2022/07/06 11:49:23;;;;;;;1.40;0.13;;;23.40;45.20;;;;;;4992667;28;20047;-83
2022/07/06 11:51:50;;;;;;;1.08;0.10;;;23.20;45.20;;;;;;4991797;28;20443;-81
2022/07/06 11:54:20;;;;;;;0.60;0.20;;;23.00;45.50;;;;;;5005574;28;20077;-82
2022/07/06 11:56:52;;;;;;;0.65;0.08;;;22.80;45.80;;;;;;4994685;28;20065;-80
2022/07/06 11:59:27;;;;;;;0.00;0.00;;;22.90;45.90;;;;;;4996426;28;20461;-81
2022/07/06 12:02:08;;;;;;;0.10;0.00;;;23.40;45.70;;;;;;4989468;28;20513;-82
2022/07/06 12:04:41;;;;;;;0.20;0.10;;;23.70;45.30;;;;;;4995034;28;20038;-82
2022/07/06 12:07:13;;;;;;;0.52;0.10;;;24.20;45.00;;;;;;4992506;28;20133;-80
2022/07/06 12:09:44;;;;;;;;;;;24.50;44.30;;;;;;4992898;28;20050;-81
2022/07/06 12:12:16;;;;;;;1.23;0.17;;;24.50;44.10;;;;;;4996489;28;19922;-84
2022/07/06 12:14:46;;;;;;;0.55;0.10;;;24.70;44.10;;;;;;4996117;28;20050;-88
2022/07/06 12:17:25;;;;;;;0.20;0.00;;;25.30;43.40;;;;;;4977277;28;20061;-88
2022/07/06 12:19:54;;;;;;;1.17;0.00;;;25.90;43.20;;;;;;4982565;28;20494;-91
2022/07/06 12:22:28;;;;;;;0.65;0.10;;;26.30;42.60;;;;;;5004247;28;20054;-89
2022/07/06 12:24:57;;;;;;;0.20;0.00;;;25.90;42.70;;;;;;4977602;28;20077;-90
2022/07/06 12:27:35;;;;;;;0.73;0.10;;;25.60;43.30;;;;;;4993171;28;20046;-84
2022/07/06 12:30:11;;;;;;;0.08;0.00;;;25.40;43.50;;;;;;5001226;28;20129;-88
2022/07/06 12:32:41;;;;;;;1.33;0.10;;;25.20;43.80;;;;;;4979483;28;20050;-90
2022/07/06 12:35:11;;;;;;;1.20;0.20;;;25.30;44.10;;;;;;4994119;28;20417;-85
2022/07/06 12:37:54;;;;;;;0.90;0.20;;;25.90;42.80;;;;;;4992305;28;20061;-85
2022/07/06 12:40:30;;;;;;;0.55;0.10;;;26.10;42.30;;;;;;4983917;28;20048;-82
2022/07/06 12:42:57;;;;;;;1.38;0.10;;;25.70;42.60;;;;;;5008182;28;20042;-82
2022/07/06 12:45:28;;;;;;;0.68;0.10;;;25.20;42.90;;;;;;4992019;28;20038;-82
2022/07/06 12:48:06;;;;;;;0.98;0.13;;;25.20;43.30;;;;;;4991624;28;20076;-80
2022/07/06 12:50:41;;;;;;;0.08;0.08;;;25.70;42.80;;;;;;4998368;28;20089;-76
2022/07/06 12:53:27;;;;;;;0.63;0.10;;;26.60;42.40;;;;;;5010431;28;20077;-77
2022/07/06 12:56:14;;;;;;;1.15;0.20;;;27.30;41.20;;;;;;4991887;28;20046;-77
2022/07/06 12:59:01;;;;;;;0.40;0.10;;;26.40;41.40;;;;;;5007459;28;20050;-77
2022/07/06 13:01:28;;;;;;;1.98;0.20;;;25.80;42.50;;;;;;4999250;28;20046;-76
2022/07/06 13:03:56;;;;;;;0.15;0.00;;;25.50;43.20;;;;;;4997139;28;20132;-75
2022/07/06 13:06:29;;;;;;;0.20;0.10;;;25.30;43.50;;;;;;4989272;28;20153;-79